Grove City (29D)
Grove City, PA
Field Elevation: 1370
Lat: 41°08.76N  Long: 80°10.07W
CTAF/Unicom Freq: 0.0000
   
     For Weather-by-Phone, call 724 748-3504
Weather Advisories
2019-02-21   16:59 Z
Altimeter 30.10" Hg
Wind 270° @ 10 KT
Gusts 15 KT
Visibility 10 SM
Temperature 3° C (37° F)
Dewpoint -2° C (28° F)
Relative Humidity 66%
Density Altitude --
Condensation Altitude 4,100 feet
Wind Chill: -1° C (30° F)
Wind and Runways
Indicated Runway = 28
Headwind = 10 kt
Crosswind = 2 kt
History
 
 
 
More Info
All DigiWx sites map
NOAA Forecast
 
Airport IQ 5010
(LHV) Lock Haven
(74PN) Altoona Regional
 
about DigiWx
 
FAA Disclaimer: The data displayed is for advisory purposes only and is not to be used for flight planning or operations. For official data, please call 724 748-3504 to hear the current automated AWOS voice message.
  METAR 29D 211659Z AUTO 27010G15KT 10 SM 03/M02 A3010